sensor_id;sensor_type;location;lat;lon;timestamp;temperature;humidity
7296;DHT22;40758;54.038;11.684;2022-07-06T00:00:18;14.40;99.90
7296;DHT22;40758;54.038;11.684;2022-07-06T00:02:49;14.50;99.90
7296;DHT22;40758;54.038;11.684;2022-07-06T00:05:19;14.50;99.90
7296;DHT22;40758;54.038;11.684;2022-07-06T00:07:51;14.50;99.90
7296;DHT22;40758;54.038;11.684;2022-07-06T00:10:20;14.50;99.90
7296;DHT22;40758;54.038;11.684;2022-07-06T00:12:50;14.50;99.90
7296;DHT22;40758;54.038;11.684;2022-07-06T00:15:23;14.50;99.90
7296;DHT22;40758;54.038;11.684;2022-07-06T00:17:53;14.50;99.90
7296;DHT22;40758;54.038;11.684;2022-07-06T00:20:24;14.50;99.90
7296;DHT22;40758;54.038;11.684;2022-07-06T00:22:53;14.50;99.90
7296;DHT22;40758;54.038;11.684;2022-07-06T00:25:22;14.50;99.90
7296;DHT22;40758;54.038;11.684;2022-07-06T00:27:52;14.50;99.90
7296;DHT22;40758;54.038;11.684;2022-07-06T00:30:22;14.50;99.90
7296;DHT22;40758;54.038;11.684;2022-07-06T00:32:53;14.50;99.90
7296;DHT22;40758;54.038;11.684;2022-07-06T00:35:23;14.50;99.90
7296;DHT22;40758;54.038;11.684;2022-07-06T00:37:53;14.50;99.90
7296;DHT22;40758;54.038;11.684;2022-07-06T00:40:23;14.60;99.90
7296;DHT22;40758;54.038;11.684;2022-07-06T00:42:56;14.60;99.90
7296;DHT22;40758;54.038;11.684;2022-07-06T00:45:26;14.60;99.90
7296;DHT22;40758;54.038;11.684;2022-07-06T00:48:00;14.60;99.90
7296;DHT22;40758;54.038;11.684;2022-07-06T00:50:30;14.60;99.90
7296;DHT22;40758;54.038;11.684;2022-07-06T00:53:02;14.50;99.90
7296;DHT22;40758;54.038;11.684;2022-07-06T00:55:37;14.50;99.90
7296;DHT22;40758;54.038;11.684;2022-07-06T00:58:08;14.40;99.90
7296;DHT22;40758;54.038;11.684;2022-07-06T01:00:42;14.40;99.90
7296;DHT22;40758;54.038;11.684;2022-07-06T01:03:16;14.40;99.90
7296;DHT22;40758;54.038;11.684;2022-07-06T01:05:48;14.40;99.90
7296;DHT22;40758;54.038;11.684;2022-07-06T01:08:19;14.50;99.90
7296;DHT22;40758;54.038;11.684;2022-07-06T01:10:51;14.60;99.90
7296;DHT22;40758;54.038;11.684;2022-07-06T01:13:20;14.70;99.90
7296;DHT22;40758;54.038;11.684;2022-07-06T01:15:54;14.70;99.90
7296;DHT22;40758;54.038;11.684;2022-07-06T01:18:28;14.80;99.90
7296;DHT22;40758;54.038;11.684;2022-07-06T01:21:20;14.80;99.90
7296;DHT22;40758;54.038;11.684;2022-07-06T01:23:52;14.80;99.90
7296;DHT22;40758;54.038;11.684;2022-07-06T01:26:21;14.80;99.90
7296;DHT22;40758;54.038;11.684;2022-07-06T01:28:51;14.80;99.90
7296;DHT22;40758;54.038;11.684;2022-07-06T01:31:22;14.90;99.90
7296;DHT22;40758;54.038;11.684;2022-07-06T01:33:55;14.90;99.90
7296;DHT22;40758;54.038;11.684;2022-07-06T01:36:29;14.90;99.90
7296;DHT22;40758;54.038;11.684;2022-07-06T01:38:58;14.90;99.90
7296;DHT22;40758;54.038;11.684;2022-07-06T01:41:30;14.80;99.90
7296;DHT22;40758;54.038;11.684;2022-07-06T01:44:00;14.80;99.90
7296;DHT22;40758;54.038;11.684;2022-07-06T01:46:30;14.80;99.90
7296;DHT22;40758;54.038;11.684;2022-07-06T01:49:00;14.80;99.90
7296;DHT22;40758;54.038;11.684;2022-07-06T01:51:32;14.80;99.90
7296;DHT22;40758;54.038;11.684;2022-07-06T01:54:01;14.80;99.90
7296;DHT22;40758;54.038;11.684;2022-07-06T01:56:32;14.70;99.90
7296;DHT22;40758;54.038;11.684;2022-07-06T01:59:02;14.70;99.90
7296;DHT22;40758;54.038;11.684;2022-07-06T02:01:32;14.70;99.90
7296;DHT22;40758;54.038;11.684;2022-07-06T02:04:02;14.70;99.90
7296;DHT22;40758;54.038;11.684;2022-07-06T02:06:33;14.60;99.90
7296;DHT22;40758;54.038;11.684;2022-07-06T02:09:02;14.60;99.90
7296;DHT22;40758;54.038;11.684;2022-07-06T02:11:32;14.60;99.90
7296;DHT22;40758;54.038;11.684;2022-07-06T02:14:02;14.60;99.90
7296;DHT22;40758;54.038;11.684;2022-07-06T02:16:31;14.60;99.90
7296;DHT22;40758;54.038;11.684;2022-07-06T02:19:00;14.50;99.90
7296;DHT22;40758;54.038;11.684;2022-07-06T02:21:30;14.50;99.90
7296;DHT22;40758;54.038;11.684;2022-07-06T02:24:01;14.50;99.90
7296;DHT22;40758;54.038;11.684;2022-07-06T02:26:33;14.40;99.90
7296;DHT22;40758;54.038;11.684;2022-07-06T02:29:02;14.40;99.90
7296;DHT22;40758;54.038;11.684;2022-07-06T02:31:32;14.40;99.90
7296;DHT22;40758;54.038;11.684;2022-07-06T02:34:02;14.50;99.90
7296;DHT22;40758;54.038;11.684;2022-07-06T02:36:30;14.50;99.90
7296;DHT22;40758;54.038;11.684;2022-07-06T02:39:01;14.50;99.90
7296;DHT22;40758;54.038;11.684;2022-07-06T02:41:31;14.40;99.90
7296;DHT22;40758;54.038;11.684;2022-07-06T02:44:00;14.40;99.90
7296;DHT22;40758;54.038;11.684;2022-07-06T02:46:29;14.40;99.90
7296;DHT22;40758;54.038;11.684;2022-07-06T02:48:58;14.40;99.90
7296;DHT22;40758;54.038;11.684;2022-07-06T02:51:28;14.40;99.90
7296;DHT22;40758;54.038;11.684;2022-07-06T02:53:57;14.50;99.90
7296;DHT22;40758;54.038;11.684;2022-07-06T02:56:28;14.50;99.90
7296;DHT22;40758;54.038;11.684;2022-07-06T02:58:57;14.50;99.90
7296;DHT22;40758;54.038;11.684;2022-07-06T03:01:27;14.50;99.90
7296;DHT22;40758;54.038;11.684;2022-07-06T03:04:03;14.50;99.90
7296;DHT22;40758;54.038;11.684;2022-07-06T03:06:36;14.50;99.90
7296;DHT22;40758;54.038;11.684;2022-07-06T03:09:05;14.50;99.90
7296;DHT22;40758;54.038;11.684;2022-07-06T03:11:37;14.50;99.90
7296;DHT22;40758;54.038;11.684;2022-07-06T03:14:10;14.40;99.90
7296;DHT22;40758;54.038;11.684;2022-07-06T03:16:39;14.30;99.90
7296;DHT22;40758;54.038;11.684;2022-07-06T03:19:16;14.30;99.90
7296;DHT22;40758;54.038;11.684;2022-07-06T03:21:45;14.30;99.90
7296;DHT22;40758;54.038;11.684;2022-07-06T03:24:16;14.30;99.90
7296;DHT22;40758;54.038;11.684;2022-07-06T03:26:47;14.30;99.90
7296;DHT22;40758;54.038;11.684;2022-07-06T03:29:17;14.40;99.90
7296;DHT22;40758;54.038;11.684;2022-07-06T03:31:49;14.40;99.90
7296;DHT22;40758;54.038;11.684;2022-07-06T03:34:19;14.40;99.90
7296;DHT22;40758;54.038;11.684;2022-07-06T03:36:48;14.40;99.90
7296;DHT22;40758;54.038;11.684;2022-07-06T03:39:20;14.40;99.90
7296;DHT22;40758;54.038;11.684;2022-07-06T03:41:52;14.40;99.90
7296;DHT22;40758;54.038;11.684;2022-07-06T03:44:25;14.40;99.90
7296;DHT22;40758;54.038;11.684;2022-07-06T03:46:55;14.50;99.90
7296;DHT22;40758;54.038;11.684;2022-07-06T03:49:28;14.60;99.90
7296;DHT22;40758;54.038;11.684;2022-07-06T03:52:00;14.60;99.90
7296;DHT22;40758;54.038;11.684;2022-07-06T03:54:31;14.70;99.90
7296;DHT22;40758;54.038;11.684;2022-07-06T03:57:06;14.70;99.90
7296;DHT22;40758;54.038;11.684;2022-07-06T03:59:35;14.70;99.90
7296;DHT22;40758;54.038;11.684;2022-07-06T04:02:07;14.80;99.90
7296;DHT22;40758;54.038;11.684;2022-07-06T04:04:37;14.90;99.90
7296;DHT22;40758;54.038;11.684;2022-07-06T04:07:06;14.90;99.90
7296;DHT22;40758;54.038;11.684;2022-07-06T04:09:36;15.10;99.90
7296;DHT22;40758;54.038;11.684;2022-07-06T04:12:10;15.20;99.90
7296;DHT22;40758;54.038;11.684;2022-07-06T04:14:45;15.30;99.90
7296;DHT22;40758;54.038;11.684;2022-07-06T04:17:15;15.30;99.90
7296;DHT22;40758;54.038;11.684;2022-07-06T04:20:02;15.20;99.90
7296;DHT22;40758;54.038;11.684;2022-07-06T04:22:37;15.10;99.90
7296;DHT22;40758;54.038;11.684;2022-07-06T04:25:07;15.20;99.90
7296;DHT22;40758;54.038;11.684;2022-07-06T04:27:39;15.20;99.90
7296;DHT22;40758;54.038;11.684;2022-07-06T04:30:09;15.30;99.90
7296;DHT22;40758;54.038;11.684;2022-07-06T04:32:41;15.40;99.90
7296;DHT22;40758;54.038;11.684;2022-07-06T04:35:11;15.50;99.90
7296;DHT22;40758;54.038;11.684;2022-07-06T04:37:43;15.60;99.90
7296;DHT22;40758;54.038;11.684;2022-07-06T04:40:13;15.60;99.90
7296;DHT22;40758;54.038;11.684;2022-07-06T04:42:47;15.70;99.90
7296;DHT22;40758;54.038;11.684;2022-07-06T04:45:16;15.90;99.90
7296;DHT22;40758;54.038;11.684;2022-07-06T04:47:46;16.30;99.90
7296;DHT22;40758;54.038;11.684;2022-07-06T04:50:19;17.20;99.90
7296;DHT22;40758;54.038;11.684;2022-07-06T04:52:48;17.20;99.90
7296;DHT22;40758;54.038;11.684;2022-07-06T04:55:18;17.20;99.90
7296;DHT22;40758;54.038;11.684;2022-07-06T04:57:53;17.00;99.90
7296;DHT22;40758;54.038;11.684;2022-07-06T05:00:23;17.30;99.90
7296;DHT22;40758;54.038;11.684;2022-07-06T05:02:55;16.90;99.90
7296;DHT22;40758;54.038;11.684;2022-07-06T05:05:25;16.60;99.90
7296;DHT22;40758;54.038;11.684;2022-07-06T05:07:55;17.40;99.90
7296;DHT22;40758;54.038;11.684;2022-07-06T05:10:25;18.10;99.90
7296;DHT22;40758;54.038;11.684;2022-07-06T05:12:58;18.00;99.90
7296;DHT22;40758;54.038;11.684;2022-07-06T05:15:28;18.60;99.90
7296;DHT22;40758;54.038;11.684;2022-07-06T05:17:57;18.80;99.90
7296;DHT22;40758;54.038;11.684;2022-07-06T05:20:26;19.10;99.90
7296;DHT22;40758;54.038;11.684;2022-07-06T05:22:55;19.10;99.90
7296;DHT22;40758;54.038;11.684;2022-07-06T05:25:25;19.60;99.90
7296;DHT22;40758;54.038;11.684;2022-07-06T05:27:57;19.80;99.90
7296;DHT22;40758;54.038;11.684;2022-07-06T05:30:27;19.90;99.90
7296;DHT22;40758;54.038;11.684;2022-07-06T05:32:56;19.50;99.90
7296;DHT22;40758;54.038;11.684;2022-07-06T05:35:25;18.00;99.90
7296;DHT22;40758;54.038;11.684;2022-07-06T05:38:15;18.40;99.90
7296;DHT22;40758;54.038;11.684;2022-07-06T05:40:45;18.50;99.90
7296;DHT22;40758;54.038;11.684;2022-07-06T05:43:16;17.50;99.90
7296;DHT22;40758;54.038;11.684;2022-07-06T05:45:46;18.20;99.90
7296;DHT22;40758;54.038;11.684;2022-07-06T05:48:15;19.10;99.90
7296;DHT22;40758;54.038;11.684;2022-07-06T05:51:02;19.30;99.90
7296;DHT22;40758;54.038;11.684;2022-07-06T05:53:33;19.20;99.90
7296;DHT22;40758;54.038;11.684;2022-07-06T05:56:03;19.00;99.90
7296;DHT22;40758;54.038;11.684;2022-07-06T05:58:35;18.80;99.90
7296;DHT22;40758;54.038;11.684;2022-07-06T06:01:05;19.60;99.90
7296;DHT22;40758;54.038;11.684;2022-07-06T06:03:36;20.90;99.90
7296;DHT22;40758;54.038;11.684;2022-07-06T06:06:06;21.40;99.90
7296;DHT22;40758;54.038;11.684;2022-07-06T06:08:38;21.30;99.90
7296;DHT22;40758;54.038;11.684;2022-07-06T06:11:12;20.50;99.90
7296;DHT22;40758;54.038;11.684;2022-07-06T06:13:43;20.70;99.90
7296;DHT22;40758;54.038;11.684;2022-07-06T06:16:13;21.00;99.90
7296;DHT22;40758;54.038;11.684;2022-07-06T06:18:49;19.60;99.90
7296;DHT22;40758;54.038;11.684;2022-07-06T06:21:21;18.20;99.90
7296;DHT22;40758;54.038;11.684;2022-07-06T06:23:51;18.00;99.90
7296;DHT22;40758;54.038;11.684;2022-07-06T06:26:21;19.60;99.90
7296;DHT22;40758;54.038;11.684;2022-07-06T06:28:53;21.10;99.90
7296;DHT22;40758;54.038;11.684;2022-07-06T06:31:22;21.60;99.90
7296;DHT22;40758;54.038;11.684;2022-07-06T06:33:52;20.30;99.90
7296;DHT22;40758;54.038;11.684;2022-07-06T06:36:22;20.10;99.90
7296;DHT22;40758;54.038;11.684;2022-07-06T06:38:55;20.90;99.90
7296;DHT22;40758;54.038;11.684;2022-07-06T06:41:25;21.40;99.90
7296;DHT22;40758;54.038;11.684;2022-07-06T06:43:55;21.80;99.90
7296;DHT22;40758;54.038;11.684;2022-07-06T06:46:25;22.30;99.90
7296;DHT22;40758;54.038;11.684;2022-07-06T06:48:55;22.00;99.90
7296;DHT22;40758;54.038;11.684;2022-07-06T06:51:25;22.00;99.90
7296;DHT22;40758;54.038;11.684;2022-07-06T06:53:53;21.80;99.90
7296;DHT22;40758;54.038;11.684;2022-07-06T06:56:23;21.60;99.90
7296;DHT22;40758;54.038;11.684;2022-07-06T06:58:53;21.80;99.90
7296;DHT22;40758;54.038;11.684;2022-07-06T07:01:43;22.10;99.90
7296;DHT22;40758;54.038;11.684;2022-07-06T07:04:24;22.30;99.90
7296;DHT22;40758;54.038;11.684;2022-07-06T07:06:57;21.90;99.90
7296;DHT22;40758;54.038;11.684;2022-07-06T07:09:29;22.20;99.90
7296;DHT22;40758;54.038;11.684;2022-07-06T07:11:59;21.70;99.90
7296;DHT22;40758;54.038;11.684;2022-07-06T07:14:30;21.10;99.90
7296;DHT22;40758;54.038;11.684;2022-07-06T07:17:00;21.40;99.90
7296;DHT22;40758;54.038;11.684;2022-07-06T07:19:31;21.90;99.90
7296;DHT22;40758;54.038;11.684;2022-07-06T07:22:00;21.50;99.90
7296;DHT22;40758;54.038;11.684;2022-07-06T07:24:34;21.40;99.90
7296;DHT22;40758;54.038;11.684;2022-07-06T07:27:07;20.40;99.90
7296;DHT22;40758;54.038;11.684;2022-07-06T07:29:40;19.20;99.90
7296;DHT22;40758;54.038;11.684;2022-07-06T07:32:10;18.20;99.90
7296;DHT22;40758;54.038;11.684;2022-07-06T07:34:39;19.00;99.90
7296;DHT22;40758;54.038;11.684;2022-07-06T07:37:12;19.20;99.90
7296;DHT22;40758;54.038;11.684;2022-07-06T07:39:42;19.50;99.90
7296;DHT22;40758;54.038;11.684;2022-07-06T07:42:12;21.00;99.90
7296;DHT22;40758;54.038;11.684;2022-07-06T07:44:47;21.70;99.90
7296;DHT22;40758;54.038;11.684;2022-07-06T07:47:17;20.20;99.90
7296;DHT22;40758;54.038;11.684;2022-07-06T07:49:47;18.90;99.90
7296;DHT22;40758;54.038;11.684;2022-07-06T07:52:16;18.70;99.90
7296;DHT22;40758;54.038;11.684;2022-07-06T07:54:46;18.60;99.90
7296;DHT22;40758;54.038;11.684;2022-07-06T07:57:36;18.40;99.90
7296;DHT22;40758;54.038;11.684;2022-07-06T08:00:09;19.50;99.90
7296;DHT22;40758;54.038;11.684;2022-07-06T08:02:42;20.40;99.90
7296;DHT22;40758;54.038;11.684;2022-07-06T08:05:18;21.30;99.90
7296;DHT22;40758;54.038;11.684;2022-07-06T08:07:52;21.90;99.90
7296;DHT22;40758;54.038;11.684;2022-07-06T08:10:22;22.70;99.90
7296;DHT22;40758;54.038;11.684;2022-07-06T08:12:55;22.50;99.90
7296;DHT22;40758;54.038;11.684;2022-07-06T08:15:26;23.00;99.90
7296;DHT22;40758;54.038;11.684;2022-07-06T08:17:59;23.20;99.90
7296;DHT22;40758;54.038;11.684;2022-07-06T08:20:28;22.60;99.90
7296;DHT22;40758;54.038;11.684;2022-07-06T08:23:01;22.10;99.90
7296;DHT22;40758;54.038;11.684;2022-07-06T08:25:34;22.70;99.90
7296;DHT22;40758;54.038;11.684;2022-07-06T08:28:11;24.10;99.90
7296;DHT22;40758;54.038;11.684;2022-07-06T08:30:48;24.00;99.90
7296;DHT22;40758;54.038;11.684;2022-07-06T08:33:19;23.00;99.90
7296;DHT22;40758;54.038;11.684;2022-07-06T08:35:51;22.60;99.90
7296;DHT22;40758;54.038;11.684;2022-07-06T08:38:27;23.00;99.90
7296;DHT22;40758;54.038;11.684;2022-07-06T08:41:10;23.80;99.90
7296;DHT22;40758;54.038;11.684;2022-07-06T08:43:53;24.40;99.90
7296;DHT22;40758;54.038;11.684;2022-07-06T08:46:26;23.70;99.90
7296;DHT22;40758;54.038;11.684;2022-07-06T08:48:57;23.00;99.90
7296;DHT22;40758;54.038;11.684;2022-07-06T08:51:38;23.10;99.90
7296;DHT22;40758;54.038;11.684;2022-07-06T08:54:11;21.60;99.90
7296;DHT22;40758;54.038;11.684;2022-07-06T08:56:42;21.90;99.90
7296;DHT22;40758;54.038;11.684;2022-07-06T08:59:15;22.00;99.90
7296;DHT22;40758;54.038;11.684;2022-07-06T09:01:46;22.70;99.90
7296;DHT22;40758;54.038;11.684;2022-07-06T09:04:22;22.30;99.90
7296;DHT22;40758;54.038;11.684;2022-07-06T09:06:55;21.70;99.90
7296;DHT22;40758;54.038;11.684;2022-07-06T09:09:33;21.90;99.90
7296;DHT22;40758;54.038;11.684;2022-07-06T09:12:09;22.20;99.90
7296;DHT22;40758;54.038;11.684;2022-07-06T09:14:41;21.40;99.90
7296;DHT22;40758;54.038;11.684;2022-07-06T09:17:13;20.90;99.90
7296;DHT22;40758;54.038;11.684;2022-07-06T09:19:45;21.40;99.90
7296;DHT22;40758;54.038;11.684;2022-07-06T09:22:25;20.90;99.90
7296;DHT22;40758;54.038;11.684;2022-07-06T09:25:03;22.00;99.90
7296;DHT22;40758;54.038;11.684;2022-07-06T09:27:37;23.00;99.90
7296;DHT22;40758;54.038;11.684;2022-07-06T09:30:11;23.40;99.90
7296;DHT22;40758;54.038;11.684;2022-07-06T09:32:51;23.10;99.90
7296;DHT22;40758;54.038;11.684;2022-07-06T09:35:26;22.80;99.90
7296;DHT22;40758;54.038;11.684;2022-07-06T09:38:02;21.70;99.90
7296;DHT22;40758;54.038;11.684;2022-07-06T09:40:36;21.20;99.90
7296;DHT22;40758;54.038;11.684;2022-07-06T09:43:14;22.30;99.90
7296;DHT22;40758;54.038;11.684;2022-07-06T09:45:50;23.70;99.90
7296;DHT22;40758;54.038;11.684;2022-07-06T09:48:24;24.40;99.90
7296;DHT22;40758;54.038;11.684;2022-07-06T09:50:57;24.60;99.90
7296;DHT22;40758;54.038;11.684;2022-07-06T09:53:30;22.90;99.90
7296;DHT22;40758;54.038;11.684;2022-07-06T09:56:10;22.10;99.90
7296;DHT22;40758;54.038;11.684;2022-07-06T09:58:40;23.10;99.90
7296;DHT22;40758;54.038;11.684;2022-07-06T10:01:29;24.40;99.90
7296;DHT22;40758;54.038;11.684;2022-07-06T10:04:00;24.50;99.90
7296;DHT22;40758;54.038;11.684;2022-07-06T10:06:30;23.70;99.90
7296;DHT22;40758;54.038;11.684;2022-07-06T10:09:02;23.50;99.90
7296;DHT22;40758;54.038;11.684;2022-07-06T10:11:42;22.70;99.90
7296;DHT22;40758;54.038;11.684;2022-07-06T10:14:17;22.70;99.90
7296;DHT22;40758;54.038;11.684;2022-07-06T10:16:51;23.40;99.90
7296;DHT22;40758;54.038;11.684;2022-07-06T10:19:26;23.00;99.90
7296;DHT22;40758;54.038;11.684;2022-07-06T10:22:00;22.00;99.90
7296;DHT22;40758;54.038;11.684;2022-07-06T10:24:32;20.90;99.90
7296;DHT22;40758;54.038;11.684;2022-07-06T10:27:08;20.60;99.90
7296;DHT22;40758;54.038;11.684;2022-07-06T10:29:39;20.20;99.90
7296;DHT22;40758;54.038;11.684;2022-07-06T10:32:09;20.00;99.90
7296;DHT22;40758;54.038;11.684;2022-07-06T10:34:44;19.80;99.90
7296;DHT22;40758;54.038;11.684;2022-07-06T10:37:23;19.50;99.90
7296;DHT22;40758;54.038;11.684;2022-07-06T10:39:54;19.70;99.90
7296;DHT22;40758;54.038;11.684;2022-07-06T10:42:42;19.70;99.90
7296;DHT22;40758;54.038;11.684;2022-07-06T10:45:20;19.50;99.90
7296;DHT22;40758;54.038;11.684;2022-07-06T10:48:19;19.20;99.90
7296;DHT22;40758;54.038;11.684;2022-07-06T10:50:55;18.70;99.90
7296;DHT22;40758;54.038;11.684;2022-07-06T10:53:28;18.20;99.90
7296;DHT22;40758;54.038;11.684;2022-07-06T10:56:03;17.50;99.90
7296;DHT22;40758;54.038;11.684;2022-07-06T10:58:46;16.70;99.90
7296;DHT22;40758;54.038;11.684;2022-07-06T11:01:19;16.20;99.90
7296;DHT22;40758;54.038;11.684;2022-07-06T11:04:05;15.90;99.90
7296;DHT22;40758;54.038;11.684;2022-07-06T11:06:39;15.70;99.90
7296;DHT22;40758;54.038;11.684;2022-07-06T11:09:14;15.70;99.90
7296;DHT22;40758;54.038;11.684;2022-07-06T11:11:45;15.80;99.90
7296;DHT22;40758;54.038;11.684;2022-07-06T11:14:17;16.10;99.90
7296;DHT22;40758;54.038;11.684;2022-07-06T11:17:03;16.70;99.90
7296;DHT22;40758;54.038;11.684;2022-07-06T11:19:36;17.60;99.90
7296;DHT22;40758;54.038;11.684;2022-07-06T11:22:09;18.50;99.90
7296;DHT22;40758;54.038;11.684;2022-07-06T11:24:40;19.50;99.90
7296;DHT22;40758;54.038;11.684;2022-07-06T11:27:12;20.20;99.90
7296;DHT22;40758;54.038;11.684;2022-07-06T11:29:43;20.20;99.90
7296;DHT22;40758;54.038;11.684;2022-07-06T11:32:13;20.00;99.90
7296;DHT22;40758;54.038;11.684;2022-07-06T11:34:44;19.90;99.90
7296;DHT22;40758;54.038;11.684;2022-07-06T11:37:21;19.90;99.90
7296;DHT22;40758;54.038;11.684;2022-07-06T11:39:50;20.30;99.90
7296;DHT22;40758;54.038;11.684;2022-07-06T11:42:23;20.50;99.90
7296;DHT22;40758;54.038;11.684;2022-07-06T11:44:53;20.50;99.90
7296;DHT22;40758;54.038;11.684;2022-07-06T11:47:36;20.40;99.90
7296;DHT22;40758;54.038;11.684;2022-07-06T11:50:10;20.40;99.90
7296;DHT22;40758;54.038;11.684;2022-07-06T11:52:56;20.50;99.90
7296;DHT22;40758;54.038;11.684;2022-07-06T11:55:28;20.70;99.90
7296;DHT22;40758;54.038;11.684;2022-07-06T11:58:01;20.80;99.90
7296;DHT22;40758;54.038;11.684;2022-07-06T12:00:36;20.80;99.90
7296;DHT22;40758;54.038;11.684;2022-07-06T12:03:09;20.80;99.90
7296;DHT22;40758;54.038;11.684;2022-07-06T12:05:40;20.30;99.90
7296;DHT22;40758;54.038;11.684;2022-07-06T12:08:12;19.70;99.90
7296;DHT22;40758;54.038;11.684;2022-07-06T12:10:41;19.60;99.90
7296;DHT22;40758;54.038;11.684;2022-07-06T12:13:13;19.40;99.90
7296;DHT22;40758;54.038;11.684;2022-07-06T12:15:43;19.50;99.90
7296;DHT22;40758;54.038;11.684;2022-07-06T12:18:13;19.20;99.90
7296;DHT22;40758;54.038;11.684;2022-07-06T12:20:43;19.00;99.90
7296;DHT22;40758;54.038;11.684;2022-07-06T12:23:24;19.10;99.90
7296;DHT22;40758;54.038;11.684;2022-07-06T12:25:59;19.40;99.90
7296;DHT22;40758;54.038;11.684;2022-07-06T12:28:31;19.10;99.90
7296;DHT22;40758;54.038;11.684;2022-07-06T12:31:06;18.80;99.90
7296;DHT22;40758;54.038;11.684;2022-07-06T12:34:13;18.70;99.90
7296;DHT22;40758;54.038;11.684;2022-07-06T12:36:49;19.00;99.90
7296;DHT22;40758;54.038;11.684;2022-07-06T12:39:24;19.50;99.90
7296;DHT22;40758;54.038;11.684;2022-07-06T12:41:56;19.70;99.90
7296;DHT22;40758;54.038;11.684;2022-07-06T12:44:33;19.80;99.90
7296;DHT22;40758;54.038;11.684;2022-07-06T12:47:19;20.30;99.90
7296;DHT22;40758;54.038;11.684;2022-07-06T12:50:05;20.50;99.90
7296;DHT22;40758;54.038;11.684;2022-07-06T12:52:40;20.40;99.90
7296;DHT22;40758;54.038;11.684;2022-07-06T12:55:17;20.10;99.90
7296;DHT22;40758;54.038;11.684;2022-07-06T12:57:55;20.20;99.90
7296;DHT22;40758;54.038;11.684;2022-07-06T13:00:26;20.40;99.90
7296;DHT22;40758;54.038;11.684;2022-07-06T13:02:57;20.50;99.90
7296;DHT22;40758;54.038;11.684;2022-07-06T13:05:35;20.80;99.90
7296;DHT22;40758;54.038;11.684;2022-07-06T13:08:09;21.50;99.90
7296;DHT22;40758;54.038;11.684;2022-07-06T13:10:40;21.80;99.90
7296;DHT22;40758;54.038;11.684;2022-07-06T13:13:11;21.90;99.90
7296;DHT22;40758;54.038;11.684;2022-07-06T13:15:44;21.40;99.90
7296;DHT22;40758;54.038;11.684;2022-07-06T13:18:28;21.70;99.90
7296;DHT22;40758;54.038;11.684;2022-07-06T13:21:01;22.60;99.90
7296;DHT22;40758;54.038;11.684;2022-07-06T13:23:34;22.40;99.90
7296;DHT22;40758;54.038;11.684;2022-07-06T13:26:06;21.30;99.90
7296;DHT22;40758;54.038;11.684;2022-07-06T13:28:35;20.70;99.90
7296;DHT22;40758;54.038;11.684;2022-07-06T13:31:05;20.30;99.90
7296;DHT22;40758;54.038;11.684;2022-07-06T13:33:41;20.30;99.90
7296;DHT22;40758;54.038;11.684;2022-07-06T13:36:11;20.70;99.90
7296;DHT22;40758;54.038;11.684;2022-07-06T13:38:46;20.90;99.90
7296;DHT22;40758;54.038;11.684;2022-07-06T13:41:17;20.70;99.90
7296;DHT22;40758;54.038;11.684;2022-07-06T13:43:47;20.30;99.90
7296;DHT22;40758;54.038;11.684;2022-07-06T13:46:17;20.10;99.90
7296;DHT22;40758;54.038;11.684;2022-07-06T13:48:47;19.50;99.90
7296;DHT22;40758;54.038;11.684;2022-07-06T13:51:16;19.50;99.90
7296;DHT22;40758;54.038;11.684;2022-07-06T13:53:47;19.90;99.90
7296;DHT22;40758;54.038;11.684;2022-07-06T13:56:23;20.70;99.90
7296;DHT22;40758;54.038;11.684;2022-07-06T13:58:53;21.10;99.90
7296;DHT22;40758;54.038;11.684;2022-07-06T14:01:26;21.30;99.90
7296;DHT22;40758;54.038;11.684;2022-07-06T14:03:57;22.10;99.90
7296;DHT22;40758;54.038;11.684;2022-07-06T14:06:27;22.60;99.90
7296;DHT22;40758;54.038;11.684;2022-07-06T14:08:57;21.70;99.90
7296;DHT22;40758;54.038;11.684;2022-07-06T14:11:31;21.40;99.90
7296;DHT22;40758;54.038;11.684;2022-07-06T14:14:01;21.30;99.90
7296;DHT22;40758;54.038;11.684;2022-07-06T14:16:35;21.00;99.90
7296;DHT22;40758;54.038;11.684;2022-07-06T14:19:08;21.00;99.90
7296;DHT22;40758;54.038;11.684;2022-07-06T14:21:44;21.30;99.90
7296;DHT22;40758;54.038;11.684;2022-07-06T14:24:14;22.30;99.90
7296;DHT22;40758;54.038;11.684;2022-07-06T14:26:46;22.20;99.90
7296;DHT22;40758;54.038;11.684;2022-07-06T14:29:23;21.30;99.90
7296;DHT22;40758;54.038;11.684;2022-07-06T14:31:53;20.50;99.90
7296;DHT22;40758;54.038;11.684;2022-07-06T14:34:23;19.80;99.90
7296;DHT22;40758;54.038;11.684;2022-07-06T14:36:54;19.20;99.90
7296;DHT22;40758;54.038;11.684;2022-07-06T14:39:24;18.70;99.90
7296;DHT22;40758;54.038;11.684;2022-07-06T14:41:57;18.30;99.90
7296;DHT22;40758;54.038;11.684;2022-07-06T14:44:27;18.10;99.90
7296;DHT22;40758;54.038;11.684;2022-07-06T14:46:56;18.20;99.90
7296;DHT22;40758;54.038;11.684;2022-07-06T14:49:26;18.20;99.90
7296;DHT22;40758;54.038;11.684;2022-07-06T14:51:58;18.20;99.90
7296;DHT22;40758;54.038;11.684;2022-07-06T14:54:27;18.50;99.90
7296;DHT22;40758;54.038;11.684;2022-07-06T14:57:03;18.90;99.90
7296;DHT22;40758;54.038;11.684;2022-07-06T14:59:50;19.70;99.90
7296;DHT22;40758;54.038;11.684;2022-07-06T15:02:23;20.50;99.90
7296;DHT22;40758;54.038;11.684;2022-07-06T15:04:56;20.80;99.90
7296;DHT22;40758;54.038;11.684;2022-07-06T15:07:26;20.80;99.90
7296;DHT22;40758;54.038;11.684;2022-07-06T15:09:56;21.00;99.90
7296;DHT22;40758;54.038;11.684;2022-07-06T15:12:27;21.20;99.90
7296;DHT22;40758;54.038;11.684;2022-07-06T15:15:00;21.40;99.90
7296;DHT22;40758;54.038;11.684;2022-07-06T15:17:30;21.20;99.90
7296;DHT22;40758;54.038;11.684;2022-07-06T15:20:00;21.50;99.90
7296;DHT22;40758;54.038;11.684;2022-07-06T15:22:30;21.60;99.90
7296;DHT22;40758;54.038;11.684;2022-07-06T15:25:00;21.30;99.90
7296;DHT22;40758;54.038;11.684;2022-07-06T15:27:33;20.90;99.90
7296;DHT22;40758;54.038;11.684;2022-07-06T15:30:12;20.90;99.90
7296;DHT22;40758;54.038;11.684;2022-07-06T15:32:56;21.20;99.90
7296;DHT22;40758;54.038;11.684;2022-07-06T15:35:27;21.90;99.90
7296;DHT22;40758;54.038;11.684;2022-07-06T15:38:16;22.70;99.90
7296;DHT22;40758;54.038;11.684;2022-07-06T15:40:47;23.00;99.90
7296;DHT22;40758;54.038;11.684;2022-07-06T15:43:23;22.70;99.90
7296;DHT22;40758;54.038;11.684;2022-07-06T15:45:57;22.80;99.90
7296;DHT22;40758;54.038;11.684;2022-07-06T15:48:45;22.80;99.90
7296;DHT22;40758;54.038;11.684;2022-07-06T15:51:15;22.50;99.90
7296;DHT22;40758;54.038;11.684;2022-07-06T15:53:47;22.30;99.90
7296;DHT22;40758;54.038;11.684;2022-07-06T15:56:22;21.80;99.90
7296;DHT22;40758;54.038;11.684;2022-07-06T15:59:02;21.30;99.90
7296;DHT22;40758;54.038;11.684;2022-07-06T16:01:35;20.90;99.90
7296;DHT22;40758;54.038;11.684;2022-07-06T16:04:04;20.60;99.90